Stations météo

réclame
Mon MeteoGroup
Korsvattnet, Suède (2221): Température de l'air & dewpoint: 08.08.2020 06:00:00 - 14.08.2020 06:00:00 (CEST)Korsvattnet, Suède (2221): Vitesse du vent & gusts: 08.08.2020 06:00:00 - 14.08.2020 06:00:00 (CEST)Korsvattnet, Suède (2221): Direction du vent: 08.08.2020 06:00:00 - 14.08.2020 06:00:00 (CEST)Korsvattnet, Suède (2221): visibility: 08.08.2020 06:00:00 - 14.08.2020 06:00:00 (CEST)Korsvattnet, Suède (2221): Quantités de précipitations: 08.08.2020 06:00:00 - 14.08.2020 06:00:00 (CEST)
Date & Time tt [°C] td [°C] ff [km/h] ff [knt] fx [km/h] fx [knt] dd vv [km] rr [mm]
14.08.2020 06:00:00 12,2 11,7 7 4 29 16 WNW 24 0,0
14.08.2020 05:00:00 12,3 11,8 16 8 25 14 W 6 0,2
14.08.2020 04:00:00 12,7 11,6 13 7 30 16 NW 30 0,0
14.08.2020 03:00:00 12,9 12,0 11 6 24 13 W 34 0,0
14.08.2020 02:00:00 13,2 11,8 6 3 27 15 NNW 19 0,0
14.08.2020 01:00:00 13,5 11,7 15 8 26 14 NNW 20 0,0
14.08.2020 00:00:00 13,3 12,0 6 4 13 7 WNW 33 0,0
13.08.2020 23:00:00 12,9 12,0 6 3 9 5 NW 30 0,0
13.08.2020 22:00:00 13,2 12,4 3 2 6 4 W 27 0,0
13.08.2020 21:00:00 13,9 12,9 3 2 6 4 WSW 19 0,0
13.08.2020 20:00:00 14,4 13,1 4 2 11 6 SW 31 0,0
13.08.2020 19:00:00 16,1 10,8 3 1 7 4 S 40 0,0
13.08.2020 18:00:00 16,6 11,5 4 2 9 5 SSW 32 0,0
13.08.2020 17:00:00 16,1 11,1 5 3 16 9 SW 46 0,0
13.08.2020 16:00:00 17,5 10,4 8 4 14 8 SSW 46 0,0
13.08.2020 15:00:00 16,4 10,3 9 5 13 7 SW 46 0,0
13.08.2020 14:00:00 17,1 10,0 9 5 15 8 S 45 0,0
13.08.2020 13:00:00 18,9 10,5 9 5 19 10 SSW 36 0,0
13.08.2020 12:00:00 17,1 10,2 11 6 17 9 SW 48 0,0
13.08.2020 11:00:00 14,7 9,5 5 3 10 5 SSE 41 0,0
13.08.2020 10:00:00 14,3 9,1 6 3 13 7 S 41 0,0
13.08.2020 09:00:00 13,1 8,0 2 1 6 4 WSW 49 0,0
13.08.2020 08:00:00 10,7 8,3 6 4 11 6 NNE 50 0,0
13.08.2020 07:00:00 9,2 7,8 8 4 10 5 NE 50 0,0
13.08.2020 06:00:00 9,0 8,1 5 3 11 6 NE 48 0,0
13.08.2020 05:00:00 7,4 6,8 6 4 9 5 NNE 50 0,0
13.08.2020 04:00:00 7,2 5,7 9 5 14 7 NNE 50 0,0
13.08.2020 03:00:00 6,7 6,1 6 3 10 5 NNE 40 0,0
13.08.2020 02:00:00 6,1 5,5 5 3 10 5 NNE 40 0,0
13.08.2020 01:00:00 6,7 6,1 6 4 - - ENE 46 0,0
13.08.2020 00:00:00 7,4 6,2 6 3 10 5 NNW 50 0,0
12.08.2020 23:00:00 7,5 6,1 3 1 13 7 E 43 0,0
12.08.2020 22:00:00 9,9 7,0 7 4 15 8 NE 50 0,0
12.08.2020 21:00:00 10,4 6,7 6 3 14 8 NNE 50 0,0
12.08.2020 20:00:00 11,5 6,8 8 4 16 9 NNW 50 0,0
12.08.2020 19:00:00 13,5 6,8 9 5 21 11 NNW 44 0,0
12.08.2020 18:00:00 14,0 6,8 10 5 22 12 NW 50 0,0
12.08.2020 17:00:00 14,6 6,9 12 7 24 13 NNW 34 0,0
12.08.2020 16:00:00 14,3 7,1 13 7 26 14 NNW 39 0,0
12.08.2020 15:00:00 14,5 7,3 12 7 29 16 NNW 40 0,0
12.08.2020 14:00:00 15,4 7,4 11 6 26 14 NNW 41 0,0
12.08.2020 13:00:00 13,8 6,9 17 9 30 16 NNE 32 0,0
12.08.2020 12:00:00 14,1 6,9 13 7 25 13 N 39 0,0
12.08.2020 11:00:00 14,2 6,8 7 4 22 12 NW 30 0,0
12.08.2020 10:00:00 12,9 6,5 11 6 21 11 NNW 44 0,0
12.08.2020 09:00:00 13,8 5,9 8 4 18 10 WNW 40 0,0
12.08.2020 08:00:00 12,1 4,8 10 5 20 11 WSW 48 0,0
12.08.2020 07:00:00 10,0 4,8 9 5 23 13 NNW 50 0,0
12.08.2020 06:00:00 10,3 4,9 13 7 22 12 N 50 0,0
12.08.2020 05:00:00 11,1 3,5 11 6 22 12 NW 50 0,0
12.08.2020 04:00:00 11,0 4,2 11 6 20 11 WNW 50 0,0
12.08.2020 03:00:00 11,9 6,2 12 7 21 11 NW 50 0,0
12.08.2020 02:00:00 12,0 5,6 10 5 18 10 NW 50 0,0
12.08.2020 01:00:00 11,3 7,2 10 6 14 7 NNW 24 0,0
12.08.2020 00:00:00 12,5 6,8 11 6 23 12 NW 50 0,0
11.08.2020 23:00:00 12,4 7,7 6 4 14 7 NW 50 0,0
11.08.2020 22:00:00 13,4 6,7 9 5 16 9 NNW 50 0,0
11.08.2020 21:00:00 14,6 8,3 8 4 18 10 N 50 0,0
11.08.2020 20:00:00 14,7 8,9 6 4 16 9 NW 50 0,0
11.08.2020 19:00:00 17,0 7,3 12 7 18 10 NW 45 0,0
11.08.2020 18:00:00 18,3 12,3 6 4 18 10 W 49 0,0
11.08.2020 17:00:00 19,0 12,1 11 6 20 11 W 44 0,0
11.08.2020 16:00:00 20,3 10,7 12 6 21 12 W 37 0,0
11.08.2020 15:00:00 19,5 12,0 9 5 17 9 SSW 39 0,0
11.08.2020 14:00:00 19,6 11,6 11 6 18 10 SSE 34 0,0
11.08.2020 13:00:00 19,4 11,2 10 5 18 10 S 38 0,0
11.08.2020 12:00:00 18,5 11,8 8 5 16 8 SSW 29 0,0
11.08.2020 11:00:00 16,6 11,0 9 5 13 7 S 42 0,0
11.08.2020 10:00:00 15,2 9,5 7 4 11 6 SSW 31 0,0
11.08.2020 09:00:00 14,4 10,0 4 2 7 4 SSW 37 0,0
11.08.2020 08:00:00 12,4 8,7 3 2 8 4 SSW 47 0,0
11.08.2020 07:00:00 11,5 8,4 3 2 13 7 NE 50 0,0
11.08.2020 06:00:00 8,6 7,7 11 6 16 9 NE 48 0,0
11.08.2020 05:00:00 8,8 6,4 12 7 16 9 NNE 50 0,0
11.08.2020 04:00:00 8,7 6,8 13 7 16 9 NNE 50 0,0
11.08.2020 03:00:00 9,6 6,9 7 4 11 6 NNE 50 0,0
11.08.2020 02:00:00 8,9 6,5 7 4 11 6 NNE 50 0,0
11.08.2020 01:00:00 10,0 6,7 7 4 13 7 NNE 50 0,0
11.08.2020 00:00:00 10,7 6,8 6 4 12 6 NNE 50 0,0
10.08.2020 23:00:00 10,9 6,8 6 4 11 6 NNE 50 0,0
10.08.2020 22:00:00 10,2 7,3 8 4 10 6 NE 50 0,0
10.08.2020 21:00:00 11,1 8,3 0 0 4 2 N 50 0,0
10.08.2020 20:00:00 14,0 8,2 4 2 11 6 WSW 50 0,0
10.08.2020 19:00:00 16,5 7,7 6 4 11 6 SSW 44 0,0
10.08.2020 18:00:00 17,6 7,9 7 4 13 7 SSW 44 0,0
10.08.2020 17:00:00 17,9 8,0 6 3 16 8 S 38 0,0
10.08.2020 16:00:00 18,2 7,9 5 3 17 9 SSW 41 0,0
10.08.2020 15:00:00 17,3 8,7 8 5 16 9 SSW 38 0,0
10.08.2020 14:00:00 16,2 7,4 8 5 18 10 S 33 0,0
10.08.2020 13:00:00 14,8 6,9 8 4 19 10 SSW 32 0,0
10.08.2020 12:00:00 13,6 6,9 13 7 20 11 SW 32 0,0
10.08.2020 11:00:00 13,0 6,4 12 6 21 12 SSW 36 0,0
10.08.2020 10:00:00 12,0 6,5 11 6 22 12 S 35 0,0
10.08.2020 09:00:00 10,4 6,7 10 5 18 10 SSW 33 0,0
10.08.2020 08:00:00 10,0 7,2 7 4 10 6 S 35 0,0
10.08.2020 07:00:00 8,1 6,4 4 2 10 5 NNE 30 0,0
10.08.2020 06:00:00 6,1 5,4 10 5 11 6 NNE 42 0,0
10.08.2020 05:00:00 4,7 4,4 9 5 12 6 NNE 36 0,0
10.08.2020 04:00:00 4,2 3,8 8 5 11 6 NE 35 0,0
10.08.2020 03:00:00 4,8 4,2 9 5 13 7 NE 40 0,0
10.08.2020 02:00:00 5,9 5,3 10 6 14 7 NNE 40 0,0
10.08.2020 01:00:00 5,5 4,9 10 5 14 8 NE 41 0,0
10.08.2020 00:00:00 6,5 4,7 8 5 12 7 NNE 48 0,0
09.08.2020 23:00:00 6,0 4,3 6 3 11 6 ENE 50 0,0
09.08.2020 22:00:00 6,9 4,7 7 4 10 5 NNW 50 0,0
09.08.2020 21:00:00 9,9 6,2 6 3 18 10 N 50 0,0
09.08.2020 20:00:00 10,2 6,3 13 7 23 12 NNW 50 0,0
09.08.2020 19:00:00 10,8 5,8 13 7 25 14 N 50 0,0
09.08.2020 18:00:00 11,1 4,8 11 6 21 11 N 50 0,0
09.08.2020 17:00:00 11,3 5,6 10 6 21 11 NNW 49 0,0
09.08.2020 16:00:00 11,6 5,0 13 7 28 15 N 37 0,0
09.08.2020 15:00:00 11,5 4,7 15 8 30 16 NNW 44 0,0
09.08.2020 14:00:00 13,5 3,8 14 8 25 14 NW 32 0,0
09.08.2020 13:00:00 12,0 5,8 15 8 31 17 NW 41 0,0
09.08.2020 12:00:00 10,9 5,0 16 9 29 16 NW 36 0,0
09.08.2020 11:00:00 10,4 5,2 6 3 28 15 WNW 35 0,0
09.08.2020 10:00:00 10,9 5,6 13 7 29 16 NW 39 0,0
09.08.2020 09:00:00 9,1 4,7 12 6 33 18 NNW 40 0,0
09.08.2020 08:00:00 8,9 5,3 14 8 29 16 NNW 45 0,0
09.08.2020 07:00:00 7,8 5,8 16 9 29 16 NW 37 0,0
09.08.2020 06:00:00 7,0 5,1 15 8 34 18 NW 34 0,0
09.08.2020 05:00:00 6,7 4,9 18 10 39 21 NW 30 0,0
09.08.2020 04:00:00 7,1 4,9 26 14 43 23 NW 33 0,0
09.08.2020 03:00:00 7,1 4,7 27 14 37 20 NW 34 0,0
09.08.2020 02:00:00 7,4 5,2 22 12 36 19 NW 33 0,0
09.08.2020 01:00:00 8,1 5,2 17 9 34 19 NNW 35 0,0
09.08.2020 00:00:00 8,4 6,0 16 9 32 17 NW 39 0,0
08.08.2020 23:00:00 9,0 6,7 21 11 55 30 NW 41 0,0
08.08.2020 22:00:00 9,1 7,1 30 16 56 31 NW 46 0,0
08.08.2020 21:00:00 10,8 8,9 29 16 45 24 NW 50 0,0
08.08.2020 20:00:00 12,2 11,1 28 15 52 28 NW 39 0,1
08.08.2020 19:00:00 13,3 12,4 28 15 51 28 NW 14 4,3
08.08.2020 18:00:00 15,2 12,0 36 20 64 35 NW 50 0,0
08.08.2020 17:00:00 22,7 13,2 17 9 30 16 WSW 40 0,0
08.08.2020 16:00:00 20,9 13,1 8 5 22 12 SSW 47 0,0
08.08.2020 15:00:00 21,0 12,7 13 7 22 12 SW 46 0,0
08.08.2020 14:00:00 20,8 12,5 14 8 27 15 SW 43 0,0
08.08.2020 13:00:00 20,7 12,9 13 7 29 16 SW 42 0,0
08.08.2020 12:00:00 21,6 13,5 15 8 26 14 SW 44 0,0
08.08.2020 11:00:00 19,7 12,5 14 8 23 13 SW 34 0,0
08.08.2020 10:00:00 18,8 12,8 8 5 14 7 SSW 43 0,0
08.08.2020 09:00:00 18,7 13,1 8 4 16 9 S 38 0,0
08.08.2020 08:00:00 17,1 12,4 8 4 14 8 S 43 0,0
08.08.2020 07:00:00 13,0 11,2 8 4 15 8 NNE 48 0,0
08.08.2020 06:00:00 10,4 9,8 11 6 14 8 NE 36 0,0

tt = Température de l'air
td = dewpoint
ff = Vitesse du vent
fx = gusts
dd = Direction du vent
vv = visibility
rr = Quantités de précipitations

stations d'obs. à proximité